createdAt,value
2022-11-22T00:00:16.758Z,8.52
2022-11-22T00:02:43.273Z,8.46
2022-11-22T00:05:10.365Z,8.60
2022-11-22T00:07:38.109Z,8.27
2022-11-22T00:10:06.703Z,8.33
2022-11-22T00:12:33.308Z,8.12
2022-11-22T00:15:00.135Z,8.75
2022-11-22T00:17:26.596Z,8.38
2022-11-22T00:19:53.149Z,8.08
2022-11-22T00:22:19.836Z,8.31
2022-11-22T00:24:46.383Z,8.07
2022-11-22T00:27:13.253Z,8.18
2022-11-22T00:29:39.695Z,8.47
2022-11-22T00:32:06.209Z,8.25
2022-11-22T00:34:32.678Z,8.22
2022-11-22T00:36:59.181Z,8.00
2022-11-22T00:39:25.656Z,7.74
2022-11-22T00:41:52.371Z,8.05
2022-11-22T00:44:18.899Z,7.53
2022-11-22T00:46:45.398Z,7.78
2022-11-22T00:49:11.878Z,7.34
2022-11-22T00:51:38.374Z,7.85
2022-11-22T00:54:04.992Z,7.92
2022-11-22T00:56:32.089Z,8.01
2022-11-22T00:58:58.806Z,8.40
2022-11-22T01:01:25.464Z,7.99
2022-11-22T01:03:51.989Z,8.01
2022-11-22T01:06:18.468Z,8.03
2022-11-22T01:08:45.004Z,8.07
2022-11-22T01:11:17.735Z,8.49
2022-11-22T01:13:44.420Z,8.47
2022-11-22T01:16:12.548Z,8.18
2022-11-22T01:18:39.145Z,8.46
2022-11-22T01:21:05.966Z,8.93
2022-11-22T01:23:33.736Z,8.67
2022-11-22T01:26:00.441Z,9.44
2022-11-22T01:28:27.212Z,9.25
2022-11-22T01:30:54.559Z,9.65
2022-11-22T01:33:21.302Z,9.18
2022-11-22T01:35:47.987Z,8.73
2022-11-22T01:38:14.436Z,9.35
2022-11-22T01:40:40.982Z,9.84
2022-11-22T01:43:16.263Z,9.80
2022-11-22T01:45:54.293Z,9.62
2022-11-22T01:48:36.411Z,9.44
2022-11-22T01:51:28.723Z,9.89
2022-11-22T01:54:02.402Z,9.92
2022-11-22T01:56:29.657Z,10.26
2022-11-22T01:59:01.976Z,9.66
2022-11-22T02:01:28.817Z,9.44
2022-11-22T02:03:57.004Z,8.86
2022-11-22T02:06:26.241Z,8.92
2022-11-22T02:09:02.490Z,9.25
2022-11-22T02:11:33.892Z,8.97
2022-11-22T02:14:00.906Z,8.69
2022-11-22T02:16:27.846Z,8.81
2022-11-22T02:18:54.386Z,8.04
2022-11-22T02:21:21.098Z,9.35
2022-11-22T02:24:00.221Z,9.48
2022-11-22T02:26:28.115Z,8.76
2022-11-22T02:28:57.825Z,8.59
2022-11-22T02:31:46.308Z,7.87
2022-11-22T02:34:14.060Z,8.07
2022-11-22T02:36:49.367Z,8.37
2022-11-22T02:39:18.668Z,8.19
2022-11-22T02:41:45.466Z,8.62
2022-11-22T02:44:12.630Z,8.50
2022-11-22T02:46:50.213Z,8.46
2022-11-22T02:49:22.486Z,8.33
2022-11-22T02:51:49.553Z,7.87
2022-11-22T02:54:16.478Z,8.41
2022-11-22T02:56:43.044Z,8.29
2022-11-22T02:59:09.715Z,7.98
2022-11-22T03:01:36.637Z,8.31
2022-11-22T03:04:03.273Z,8.42
2022-11-22T03:06:29.776Z,8.59
2022-11-22T03:08:56.846Z,8.82
2022-11-22T03:11:24.083Z,8.53
2022-11-22T03:13:50.941Z,8.59
2022-11-22T03:16:17.588Z,8.48
2022-11-22T03:18:44.099Z,8.51
2022-11-22T03:21:10.553Z,8.28
2022-11-22T03:23:37.078Z,8.42
2022-11-22T03:26:10.668Z,8.94
2022-11-22T03:28:37.177Z,8.69
2022-11-22T03:31:07.349Z,8.94
2022-11-22T03:33:34.812Z,8.56
2022-11-22T03:36:01.647Z,8.42
2022-11-22T03:38:28.085Z,8.53
2022-11-22T03:40:54.631Z,8.52
2022-11-22T03:43:21.444Z,8.89
2022-11-22T03:45:48.523Z,8.60
2022-11-22T03:48:15.067Z,8.90
2022-11-22T03:50:41.496Z,9.06
2022-11-22T03:53:08.491Z,8.63
2022-11-22T03:55:35.201Z,9.04
2022-11-22T03:58:01.896Z,9.14
2022-11-22T04:00:28.393Z,8.91
2022-11-22T04:02:55.017Z,8.64
2022-11-22T04:05:21.522Z,9.30
2022-11-22T04:07:48.872Z,9.17
2022-11-22T04:10:19.349Z,8.49
2022-11-22T04:12:48.742Z,8.86
2022-11-22T04:15:15.318Z,8.93
2022-11-22T04:17:47.838Z,8.54
2022-11-22T04:20:36.012Z,9.13
2022-11-22T04:23:06.836Z,9.11
2022-11-22T04:25:35.288Z,8.72
2022-11-22T04:28:02.378Z,8.87
2022-11-22T04:30:47.486Z,8.96
2022-11-22T04:33:14.803Z,8.55
2022-11-22T04:35:42.317Z,8.70
2022-11-22T04:38:08.988Z,8.95
2022-11-22T04:40:35.893Z,8.98
2022-11-22T04:43:21.564Z,9.08
2022-11-22T04:45:48.118Z,8.82
2022-11-22T04:48:15.079Z,9.08
2022-11-22T04:51:17.380Z,9.32
2022-11-22T04:53:44.926Z,9.30
2022-11-22T04:56:12.165Z,8.60
2022-11-22T04:58:39.004Z,9.24
2022-11-22T05:01:05.575Z,8.79
2022-11-22T05:03:32.258Z,9.01
2022-11-22T05:06:02.570Z,9.47
2022-11-22T05:08:29.676Z,9.57
2022-11-22T05:10:59.575Z,9.47
2022-11-22T05:13:37.775Z,9.51
2022-11-22T05:16:06.131Z,9.32
2022-11-22T05:18:32.797Z,9.58
2022-11-22T05:21:00.708Z,9.61
2022-11-22T05:23:45.754Z,9.57
2022-11-22T05:26:12.257Z,9.74
2022-11-22T05:28:39.448Z,9.73
2022-11-22T05:31:11.830Z,9.49
2022-11-22T05:33:39.981Z,9.51
2022-11-22T05:36:07.668Z,9.45
2022-11-22T05:38:38.055Z,9.55
2022-11-22T05:41:06.761Z,9.22
2022-11-22T05:43:33.572Z,9.19
2022-11-22T05:46:07.478Z,8.60
2022-11-22T05:48:34.017Z,8.57
2022-11-22T05:51:04.377Z,8.87
2022-11-22T05:53:30.948Z,8.72
2022-11-22T05:55:57.453Z,8.27
2022-11-22T05:58:23.988Z,8.67
2022-11-22T06:00:50.414Z,8.15
2022-11-22T06:03:16.864Z,8.20
2022-11-22T06:05:43.316Z,8.09
2022-11-22T06:08:11.374Z,8.27
2022-11-22T06:10:39.112Z,8.29
2022-11-22T06:13:05.580Z,7.15
2022-11-22T06:15:32.121Z,7.85
2022-11-22T06:17:58.633Z,8.20
2022-11-22T06:20:25.282Z,7.93
2022-11-22T06:22:51.717Z,7.97
2022-11-22T06:25:18.255Z,7.89
2022-11-22T06:27:44.732Z,8.04
2022-11-22T06:30:11.776Z,7.64
2022-11-22T06:32:38.287Z,8.02
2022-11-22T06:35:05.156Z,7.78
2022-11-22T06:37:31.696Z,7.88
2022-11-22T06:39:58.198Z,8.46
2022-11-22T06:42:24.976Z,8.15
2022-11-22T06:44:51.522Z,7.83
2022-11-22T06:47:18.283Z,7.82
2022-11-22T06:49:45.642Z,8.11
2022-11-22T06:52:12.200Z,8.29
2022-11-22T06:54:38.826Z,8.30
2022-11-22T06:57:05.315Z,8.35
2022-11-22T06:59:32.175Z,8.21
2022-11-22T07:02:04.525Z,8.44
2022-11-22T07:04:32.885Z,8.54
2022-11-22T07:06:59.322Z,8.29
2022-11-22T07:09:25.935Z,8.08
2022-11-22T07:11:52.369Z,8.54
2022-11-22T07:14:19.258Z,8.49
2022-11-22T07:16:45.680Z,7.89
2022-11-22T07:19:12.122Z,7.90
2022-11-22T07:21:38.570Z,8.11
2022-11-22T07:24:06.031Z,7.92
2022-11-22T07:26:32.615Z,8.09
2022-11-22T07:28:59.028Z,7.58
2022-11-22T07:31:26.109Z,7.83
2022-11-22T07:33:52.620Z,7.79
2022-11-22T07:36:21.257Z,7.73
2022-11-22T07:38:48.540Z,8.06
2022-11-22T07:41:15.661Z,7.06
2022-11-22T07:43:42.216Z,7.87
2022-11-22T07:46:21.810Z,7.66
2022-11-22T07:48:49.656Z,7.53
2022-11-22T07:51:16.707Z,7.92
2022-11-22T07:53:43.333Z,8.07
2022-11-22T07:56:09.931Z,8.01
2022-11-22T07:58:37.530Z,8.14
2022-11-22T08:01:06.293Z,8.01
2022-11-22T08:03:32.881Z,8.16
2022-11-22T08:06:00.941Z,8.56
2022-11-22T08:08:27.851Z,8.57
2022-11-22T08:10:54.449Z,9.10
2022-11-22T08:13:21.395Z,8.75
2022-11-22T08:15:54.423Z,9.16
2022-11-22T08:18:21.828Z,8.95
2022-11-22T08:20:48.268Z,8.96
2022-11-22T08:23:14.818Z,9.10
2022-11-22T08:25:41.416Z,9.35
2022-11-22T08:28:07.956Z,9.81
2022-11-22T08:30:34.597Z,9.81
2022-11-22T08:33:01.071Z,9.70
2022-11-22T08:35:27.559Z,9.76
2022-11-22T08:37:57.776Z,9.82
2022-11-22T08:40:24.506Z,9.15
2022-11-22T08:42:53.898Z,9.30
2022-11-22T08:45:20.415Z,9.50
2022-11-22T08:47:47.311Z,8.98
2022-11-22T08:50:13.783Z,9.14
2022-11-22T08:52:40.244Z,9.80
2022-11-22T08:55:07.611Z,9.63
2022-11-22T08:57:34.079Z,11.05
2022-11-22T09:00:00.635Z,11.64
2022-11-22T09:02:27.177Z,11.36
2022-11-22T09:04:53.673Z,11.73
2022-11-22T09:10:08.111Z,12.64
2022-11-22T09:12:34.752Z,13.33
2022-11-22T09:15:01.324Z,13.99
2022-11-22T09:17:27.860Z,14.60
2022-11-22T09:19:54.488Z,15.54
2022-11-22T09:22:24.017Z,17.24
2022-11-22T09:24:53.399Z,20.70
2022-11-22T09:27:20.238Z,18.36
2022-11-22T09:29:46.697Z,22.77
2022-11-22T09:32:13.152Z,24.29
2022-11-22T09:34:49.668Z,21.14
2022-11-22T09:37:18.547Z,21.91
2022-11-22T09:39:48.458Z,25.31
2022-11-22T09:42:53.412Z,23.71
2022-11-22T09:45:51.934Z,27.40
2022-11-22T09:48:36.576Z,31.22
2022-11-22T09:51:07.347Z,28.04
2022-11-22T09:53:48.113Z,26.47
2022-11-22T09:56:19.632Z,26.27
2022-11-22T09:58:52.905Z,24.54
2022-11-22T10:01:31.836Z,26.17
2022-11-22T10:04:06.483Z,25.71
2022-11-22T10:06:36.080Z,27.85
2022-11-22T10:09:02.518Z,30.82
2022-11-22T10:11:36.795Z,26.55
2022-11-22T10:14:22.718Z,31.20
2022-11-22T10:17:18.467Z,26.52
2022-11-22T10:19:54.461Z,30.08
2022-11-22T10:22:21.260Z,29.15
2022-11-22T10:24:47.727Z,27.52
2022-11-22T10:27:15.409Z,27.94
2022-11-22T10:29:52.156Z,27.74
2022-11-22T10:32:24.798Z,26.06
2022-11-22T10:35:04.070Z,27.68
2022-11-22T10:37:52.431Z,28.70
2022-11-22T10:40:23.676Z,27.03
2022-11-22T10:43:05.189Z,28.97
2022-11-22T10:45:41.231Z,29.47
2022-11-22T10:48:52.433Z,26.53
2022-11-22T10:51:37.502Z,29.63
2022-11-22T10:54:15.452Z,24.05
2022-11-22T10:57:19.215Z,26.02
2022-11-22T11:00:21.986Z,23.63
2022-11-22T11:02:54.473Z,22.01
2022-11-22T11:05:25.297Z,25.02
2022-11-22T11:07:56.717Z,24.32
2022-11-22T11:10:34.549Z,16.94
2022-11-22T11:13:09.448Z,14.99
2022-11-22T11:15:43.002Z,14.74
2022-11-22T11:18:17.561Z,13.36
2022-11-22T11:20:47.588Z,13.46
2022-11-22T11:23:16.133Z,13.94
2022-11-22T11:25:44.628Z,13.28
2022-11-22T11:28:13.135Z,11.85
2022-11-22T11:30:43.296Z,12.46
2022-11-22T11:33:26.523Z,12.57
2022-11-22T11:35:56.623Z,11.96
2022-11-22T11:38:35.753Z,11.81
2022-11-22T11:41:21.909Z,12.98
2022-11-22T11:43:49.539Z,14.84
2022-11-22T11:46:24.676Z,17.52
2022-11-22T11:48:55.737Z,19.67
2022-11-22T11:51:35.630Z,20.22
2022-11-22T11:54:06.031Z,20.78
2022-11-22T11:56:35.430Z,19.08
2022-11-22T11:59:07.209Z,22.67
2022-11-22T12:01:38.698Z,26.07
2022-11-22T12:04:06.509Z,21.00
2022-11-22T12:06:33.610Z,20.39
2022-11-22T12:09:00.928Z,18.40
2022-11-22T12:11:42.349Z,17.75
2022-11-22T12:14:20.068Z,16.28
2022-11-22T12:16:48.207Z,14.39
2022-11-22T12:19:29.925Z,16.10
2022-11-22T12:22:29.465Z,16.67
2022-11-22T12:25:31.930Z,14.27
2022-11-22T12:28:09.707Z,12.78
2022-11-22T12:30:38.143Z,12.59
2022-11-22T12:33:06.784Z,12.85
2022-11-22T12:35:42.311Z,12.86
2022-11-22T12:38:17.866Z,12.86
2022-11-22T12:40:56.264Z,12.34
2022-11-22T12:43:25.105Z,13.09
2022-11-22T12:46:14.111Z,13.26
2022-11-22T12:48:53.135Z,12.81
2022-11-22T12:51:52.643Z,13.22
2022-11-22T12:54:33.730Z,12.29
2022-11-22T12:57:06.376Z,12.13
2022-11-22T12:59:38.805Z,12.72
2022-11-22T13:02:17.327Z,12.38
2022-11-22T13:05:00.677Z,12.67
2022-11-22T13:07:36.565Z,12.30
2022-11-22T13:10:09.280Z,11.82
2022-11-22T13:12:37.842Z,11.23
2022-11-22T13:15:05.261Z,11.78
2022-11-22T13:17:34.899Z,11.84
2022-11-22T13:20:21.284Z,11.73
2022-11-22T13:23:09.973Z,12.56
2022-11-22T13:25:51.480Z,12.20
2022-11-22T13:28:23.967Z,11.34
2022-11-22T13:31:10.212Z,12.06
2022-11-22T13:33:41.612Z,12.26
2022-11-22T13:36:26.912Z,11.76
2022-11-22T13:38:55.979Z,12.27
2022-11-22T13:41:34.563Z,11.64
2022-11-22T13:44:24.402Z,12.17
2022-11-22T13:46:53.792Z,11.92
2022-11-22T13:49:35.447Z,11.35
2022-11-22T13:52:12.787Z,11.46
2022-11-22T13:54:42.482Z,11.33
2022-11-22T13:57:29.374Z,12.19
2022-11-22T14:00:14.387Z,12.34
2022-11-22T14:02:48.129Z,11.68
2022-11-22T14:05:17.611Z,11.89
2022-11-22T14:07:44.405Z,11.36
2022-11-22T14:10:26.450Z,11.59
2022-11-22T14:13:16.104Z,11.50
2022-11-22T14:16:11.644Z,11.45
2022-11-22T14:18:53.405Z,11.14
2022-11-22T14:21:28.831Z,11.56
2022-11-22T14:24:26.271Z,11.83
2022-11-22T14:27:26.418Z,11.88
2022-11-22T14:30:15.164Z,11.94
2022-11-22T14:32:55.639Z,11.81
2022-11-22T14:35:30.066Z,11.63
2022-11-22T14:38:28.541Z,11.66
2022-11-22T14:41:45.132Z,11.53
2022-11-22T14:44:18.688Z,11.23
2022-11-22T14:46:54.622Z,11.06
2022-11-22T14:49:21.538Z,10.82
2022-11-22T14:51:52.659Z,11.37
2022-11-22T14:54:28.049Z,10.70
2022-11-22T14:57:01.249Z,11.12
2022-11-22T14:59:39.684Z,11.44
2022-11-22T15:02:36.188Z,10.78
2022-11-22T15:09:11.062Z,10.52
2022-11-22T15:09:21.647Z,10.94
2022-11-22T15:11:53.985Z,10.59
2022-11-22T15:14:42.224Z,10.72
2022-11-22T15:59:42.806Z,10.26
2022-11-22T16:02:18.966Z,10.27
2022-11-22T16:06:04.619Z,10.32
2022-11-22T16:07:48.876Z,10.28
2022-11-22T16:10:27.640Z,9.90
2022-11-22T16:12:54.527Z,9.81
2022-11-22T16:15:38.413Z,9.70
2022-11-22T16:18:27.141Z,9.77
2022-11-22T16:21:03.237Z,9.72
2022-11-22T16:23:33.144Z,10.26
2022-11-22T16:26:12.369Z,9.60
2022-11-22T16:28:39.068Z,9.78
2022-11-22T16:31:15.988Z,9.56
2022-11-22T16:33:44.224Z,9.94
2022-11-22T16:36:16.156Z,10.03
2022-11-22T16:38:43.565Z,9.78
2022-11-22T16:41:21.155Z,9.16
2022-11-22T16:43:52.104Z,9.29
2022-11-22T16:46:18.955Z,9.34
2022-11-22T16:48:45.711Z,9.43
2022-11-22T16:51:15.043Z,9.38
2022-11-22T16:53:44.233Z,9.35
2022-11-22T16:56:19.350Z,9.72
2022-11-22T16:58:46.844Z,9.63
2022-11-22T17:01:16.085Z,9.91
2022-11-22T17:03:43.776Z,9.15
2022-11-22T17:06:22.188Z,9.65
2022-11-22T17:08:50.479Z,9.69
2022-11-22T17:11:19.599Z,9.56
2022-11-22T17:13:46.424Z,9.82
2022-11-22T17:16:13.378Z,9.61
2022-11-22T17:18:40.103Z,9.56
2022-11-22T17:21:15.137Z,9.33
2022-11-22T17:23:41.962Z,9.25
2022-11-22T17:26:09.980Z,9.49
2022-11-22T17:28:36.446Z,9.27
2022-11-22T17:31:02.988Z,9.44
2022-11-22T17:33:29.641Z,9.59
2022-11-22T17:35:56.576Z,9.56
2022-11-22T17:38:23.026Z,10.07
2022-11-22T17:40:50.228Z,9.90
2022-11-22T17:43:17.415Z,9.70
2022-11-22T17:45:45.063Z,9.45
2022-11-22T17:48:12.230Z,9.44
2022-11-22T17:50:39.426Z,9.13
2022-11-22T17:53:05.892Z,9.89
2022-11-22T17:55:48.265Z,9.60
2022-11-22T17:58:19.103Z,9.64
2022-11-22T18:00:45.617Z,9.00
2022-11-22T18:03:15.624Z,9.81
2022-11-22T18:05:42.643Z,9.74
2022-11-22T18:08:09.184Z,10.09
2022-11-22T18:10:35.636Z,9.36
2022-11-22T18:13:31.954Z,9.58
2022-11-22T18:15:52.830Z,9.80
2022-11-22T18:18:40.730Z,9.63
2022-11-22T18:21:11.412Z,9.57
2022-11-22T18:23:40.748Z,9.68
2022-11-22T18:29:24.621Z,9.58
2022-11-22T18:31:54.015Z,9.45
2022-11-22T18:34:22.145Z,9.34
2022-11-22T18:36:55.177Z,9.85
2022-11-22T18:39:22.902Z,9.99
2022-11-22T18:41:49.492Z,9.58
2022-11-22T18:44:16.032Z,9.18
2022-11-22T18:46:42.640Z,9.30
2022-11-22T18:49:09.885Z,10.00
2022-11-22T18:51:36.438Z,9.47
2022-11-22T18:54:03.091Z,9.36
2022-11-22T18:56:29.799Z,9.77
2022-11-22T18:58:56.349Z,9.50
2022-11-22T19:01:23.424Z,9.78
2022-11-22T19:03:49.984Z,9.65
2022-11-22T19:06:18.400Z,9.35
2022-11-22T19:08:45.994Z,9.56
2022-11-22T19:11:12.792Z,9.38
2022-11-22T19:13:40.991Z,9.57
2022-11-22T19:16:13.201Z,9.39
2022-11-22T19:18:42.872Z,9.45
2022-11-22T19:21:11.926Z,9.67
2022-11-22T19:23:41.598Z,9.84
2022-11-22T19:26:10.396Z,9.69
2022-11-22T19:28:37.221Z,10.27
2022-11-22T19:31:15.115Z,10.12
2022-11-22T19:33:41.655Z,9.48
2022-11-22T19:36:11.635Z,10.21
2022-11-22T19:38:38.125Z,10.22
2022-11-22T19:41:12.183Z,9.91
2022-11-22T19:43:38.957Z,10.05
2022-11-22T19:46:16.013Z,9.92
2022-11-22T19:48:46.992Z,10.01
2022-11-22T19:51:15.362Z,10.49
2022-11-22T19:53:42.851Z,10.59
2022-11-22T19:56:16.302Z,9.68
2022-11-22T19:58:44.403Z,10.08
2022-11-22T20:01:13.016Z,9.47
2022-11-22T20:03:41.077Z,9.47
2022-11-22T20:06:09.081Z,9.47
2022-11-22T20:08:36.007Z,9.20
2022-11-22T20:11:04.038Z,9.24
2022-11-22T20:13:30.671Z,9.56
2022-11-22T20:15:57.419Z,9.69
2022-11-22T20:18:23.908Z,9.35
2022-11-22T20:20:50.616Z,9.25
2022-11-22T20:23:17.122Z,8.87
2022-11-22T20:25:43.745Z,8.93
2022-11-22T20:28:10.220Z,9.01
2022-11-22T20:30:36.832Z,9.09
2022-11-22T20:33:03.359Z,9.39
2022-11-22T20:35:29.800Z,9.42
2022-11-22T20:37:56.467Z,9.30
2022-11-22T20:40:22.952Z,8.85
2022-11-22T20:42:49.404Z,9.59
2022-11-22T20:45:15.941Z,9.58
2022-11-22T20:47:42.443Z,9.48
2022-11-22T20:50:09.081Z,9.75
2022-11-22T20:52:35.758Z,9.13
2022-11-22T20:55:05.363Z,9.70
2022-11-22T20:57:32.140Z,9.24
2022-11-22T20:59:58.836Z,9.43
2022-11-22T21:02:25.290Z,9.49
2022-11-22T21:04:53.772Z,8.79
2022-11-22T21:07:20.229Z,9.55
2022-11-22T21:09:46.738Z,9.43
2022-11-22T21:12:13.185Z,8.76
2022-11-22T21:14:40.306Z,8.84
2022-11-22T21:17:30.588Z,9.05
2022-11-22T21:19:53.309Z,9.03
2022-11-22T21:22:19.718Z,8.95
2022-11-22T21:24:46.204Z,9.29
2022-11-22T21:27:12.670Z,9.11
2022-11-22T21:29:39.851Z,8.85
2022-11-22T21:32:06.394Z,8.80
2022-11-22T21:34:33.721Z,8.86
2022-11-22T21:37:00.285Z,9.06
2022-11-22T21:39:26.782Z,9.04
2022-11-22T21:41:54.759Z,9.22
2022-11-22T21:44:21.273Z,8.97
2022-11-22T21:46:47.739Z,9.59
2022-11-22T21:49:14.243Z,9.53
2022-11-22T21:51:40.710Z,9.35
2022-11-22T21:54:07.331Z,9.38
2022-11-22T21:56:36.404Z,9.58
2022-11-22T21:59:02.910Z,9.52
2022-11-22T22:01:29.559Z,9.37
2022-11-22T22:03:56.304Z,9.38
2022-11-22T22:06:22.911Z,9.70
2022-11-22T22:08:49.376Z,9.75
2022-11-22T22:11:16.094Z,9.49
2022-11-22T22:13:42.568Z,9.28
2022-11-22T22:16:15.304Z,9.41
2022-11-22T22:18:43.382Z,9.64
2022-11-22T22:21:10.990Z,9.78
2022-11-22T22:23:38.543Z,10.08
2022-11-22T22:26:07.427Z,9.75
2022-11-22T22:28:36.155Z,9.96
2022-11-22T22:31:04.552Z,9.90
2022-11-22T22:33:31.517Z,10.05
2022-11-22T22:35:59.092Z,9.95
2022-11-22T22:38:25.799Z,10.18
2022-11-22T22:40:56.092Z,10.12
2022-11-22T22:43:23.355Z,10.06
2022-11-22T22:45:50.802Z,9.85
2022-11-22T22:48:18.202Z,9.71
2022-11-22T22:50:44.923Z,10.33
2022-11-22T22:53:11.721Z,10.32
2022-11-22T22:55:38.240Z,10.05
2022-11-22T22:58:04.947Z,9.51
2022-11-22T23:00:31.450Z,9.92
2022-11-22T23:02:57.909Z,9.48
2022-11-22T23:05:24.731Z,9.82
2022-11-22T23:07:51.233Z,9.70
2022-11-22T23:10:17.911Z,9.63
2022-11-22T23:12:44.554Z,10.12
2022-11-22T23:15:10.990Z,10.07
2022-11-22T23:17:37.586Z,10.28
2022-11-22T23:20:04.373Z,10.44
2022-11-22T23:22:30.915Z,10.53
2022-11-22T23:24:57.368Z,9.85
2022-11-22T23:27:23.827Z,10.08
2022-11-22T23:29:50.340Z,9.94
2022-11-22T23:32:16.779Z,10.35
2022-11-22T23:34:43.185Z,10.36
2022-11-22T23:37:09.628Z,10.19
2022-11-22T23:39:36.233Z,10.17
2022-11-22T23:42:02.746Z,10.33
2022-11-22T23:44:29.256Z,10.41
2022-11-22T23:46:55.723Z,9.78
2022-11-22T23:49:22.168Z,10.40
2022-11-22T23:51:50.277Z,10.45
2022-11-22T23:54:17.114Z,10.36
2022-11-22T23:56:43.578Z,10.42
2022-11-22T23:59:10.407Z,9.94
